createdAt,value
2022-10-12T00:00:20.700Z,15.06713867
2022-10-12T00:01:21.874Z,15.08728027
2022-10-12T00:02:22.537Z,15.08728027
2022-10-12T00:03:23.132Z,15.11749268
2022-10-12T00:04:23.688Z,15.11749268
2022-10-12T00:05:24.192Z,15.11749268
2022-10-12T00:06:24.695Z,15.14770508
2022-10-12T00:07:25.250Z,15.14770508
2022-10-12T00:08:26.376Z,15.12756348
2022-10-12T00:09:27.018Z,15.10742188
2022-10-12T00:10:28.120Z,15.10742188
2022-10-12T00:11:28.594Z,15.03692627
2022-10-12T00:12:29.104Z,14.97650146
2022-10-12T00:13:29.684Z,14.94628906
2022-10-12T00:14:30.278Z,14.96643066
2022-10-12T00:15:30.840Z,14.93621826
2022-10-12T00:16:31.394Z,14.93621826
2022-10-12T00:17:31.791Z,14.96643066
2022-10-12T00:18:32.357Z,14.96643066
2022-10-12T00:19:33.991Z,14.97650146
2022-10-12T00:20:34.679Z,15.02685547
2022-10-12T00:21:35.185Z,15.04699707
2022-10-12T00:22:35.736Z,15.08728027
2022-10-12T00:23:36.202Z,15.10742188
2022-10-12T00:24:40.581Z,15.10742188
2022-10-12T00:25:37.425Z,15.08728027
2022-10-12T00:26:38.021Z,15.08728027
2022-10-12T00:27:38.864Z,15.04699707
2022-10-12T00:28:39.027Z,15.04699707
2022-10-12T00:29:40.389Z,15.00671387
2022-10-12T00:30:41.011Z,15.03692627
2022-10-12T00:31:41.549Z,15.03692627
2022-10-12T00:32:42.080Z,15.00671387
2022-10-12T00:33:42.503Z,14.96643066
2022-10-12T00:34:43.018Z,14.94628906
2022-10-12T00:35:43.653Z,14.97650146
2022-10-12T00:36:44.258Z,14.96643066
2022-10-12T00:37:44.866Z,14.97650146
2022-10-12T00:38:45.375Z,14.96643066
2022-10-12T00:39:46.354Z,14.94628906
2022-10-12T00:40:46.840Z,14.93621826
2022-10-12T00:41:48.212Z,14.90600586
2022-10-12T00:42:49.291Z,14.92614746
2022-10-12T00:44:20.085Z,14.92614746
2022-10-12T00:45:20.757Z,14.90600586
2022-10-12T00:46:21.235Z,14.89593506
2022-10-12T00:47:21.857Z,14.89593506
2022-10-12T00:48:22.499Z,14.89593506
2022-10-12T00:49:23.069Z,14.90600586
2022-10-12T00:50:24.108Z,14.89593506
2022-10-12T00:51:24.606Z,14.89593506
2022-10-12T00:52:25.186Z,14.90600586
2022-10-12T00:53:25.806Z,14.90600586
2022-10-12T00:54:26.292Z,14.89593506
2022-10-12T00:55:26.800Z,14.86572266
2022-10-12T00:56:27.302Z,14.86572266
2022-10-12T00:57:27.780Z,14.89593506
2022-10-12T00:58:28.507Z,14.85565186
2022-10-12T00:59:29.044Z,14.84558105
2022-10-12T01:00:30.234Z,14.79522705
2022-10-12T01:01:30.696Z,14.77508545
2022-10-12T01:02:31.144Z,14.75494385
2022-10-12T01:03:31.772Z,14.72473145
2022-10-12T01:04:32.367Z,14.71466064
2022-10-12T01:05:32.979Z,14.71466064
2022-10-12T01:06:33.551Z,14.67437744
2022-10-12T01:07:34.053Z,14.64416504
2022-10-12T01:08:34.576Z,14.64416504
2022-10-12T01:09:35.152Z,14.63409424
2022-10-12T01:10:36.688Z,14.64416504
2022-10-12T01:11:37.301Z,14.66430664
2022-10-12T01:12:37.803Z,14.69451904
2022-10-12T01:13:38.290Z,14.71466064
2022-10-12T01:14:38.745Z,14.74487305
2022-10-12T01:15:39.344Z,14.75494385
2022-10-12T01:16:39.950Z,14.72473145
2022-10-12T01:17:40.772Z,14.66430664
2022-10-12T01:18:41.642Z,14.63409424
2022-10-12T01:19:42.087Z,14.64416504
2022-10-12T01:20:43.185Z,14.63409424
2022-10-12T01:21:43.815Z,14.63409424
2022-10-12T01:22:44.335Z,14.64416504
2022-10-12T01:23:45.654Z,14.67437744
2022-10-12T01:24:46.137Z,14.67437744
2022-10-12T01:25:46.679Z,14.64416504
2022-10-12T01:26:47.345Z,14.63409424
2022-10-12T01:27:47.904Z,14.60388184
2022-10-12T01:29:19.126Z,14.56359863
2022-10-12T01:30:19.632Z,14.59381104
2022-10-12T01:31:20.157Z,14.63409424
2022-10-12T01:32:20.884Z,14.66430664
2022-10-12T01:33:21.549Z,14.69451904
2022-10-12T01:34:22.190Z,14.74487305
2022-10-12T01:35:22.666Z,14.78515625
2022-10-12T01:36:23.168Z,14.82543945
2022-10-12T01:37:23.714Z,14.84558105
2022-10-12T01:38:24.291Z,14.82543945
2022-10-12T01:39:24.897Z,14.84558105
2022-10-12T01:40:26.416Z,14.85565186
2022-10-12T01:41:26.883Z,14.89593506
2022-10-12T01:42:28.408Z,14.92614746
2022-10-12T01:43:29.038Z,14.94628906
2022-10-12T01:44:29.693Z,14.94628906
2022-10-12T01:45:30.336Z,14.93621826
2022-10-12T01:46:30.818Z,14.97650146
2022-10-12T01:47:31.438Z,14.96643066
2022-10-12T01:48:31.975Z,14.97650146
2022-10-12T01:49:32.681Z,14.97650146
2022-10-12T01:50:34.212Z,15.02685547
2022-10-12T01:51:34.738Z,15.03692627
2022-10-12T01:52:35.358Z,15.04699707
2022-10-12T01:53:35.806Z,15.03692627
2022-10-12T01:54:36.383Z,15.03692627
2022-10-12T01:55:36.963Z,15.04699707
2022-10-12T01:56:37.609Z,15.06713867
2022-10-12T01:57:38.549Z,15.06713867
2022-10-12T01:58:38.639Z,15.08728027
2022-10-12T01:59:39.160Z,15.08728027
2022-10-12T02:00:40.801Z,15.10742188
2022-10-12T02:01:41.384Z,15.12756348
2022-10-12T02:02:41.997Z,15.12756348
2022-10-12T02:03:42.467Z,15.14770508
2022-10-12T02:04:42.987Z,15.18798828
2022-10-12T02:05:43.654Z,15.22827148
2022-10-12T02:06:44.265Z,15.26855469
2022-10-12T02:07:44.885Z,15.30883789
2022-10-12T02:08:45.356Z,15.33905029
2022-10-12T02:09:45.862Z,15.3692627
2022-10-12T02:10:47.146Z,15.33905029
2022-10-12T02:11:48.920Z,15.30883789
2022-10-12T02:13:19.803Z,15.30883789
2022-10-12T02:14:20.626Z,15.30883789
2022-10-12T02:15:21.071Z,15.30883789
2022-10-12T02:16:21.548Z,15.27862549
2022-10-12T02:17:22.183Z,15.29876709
2022-10-12T02:18:22.755Z,15.32897949
2022-10-12T02:19:23.408Z,15.33905029
2022-10-12T02:20:24.863Z,15.30883789
2022-10-12T02:21:25.360Z,15.30883789
2022-10-12T02:22:25.909Z,15.29876709
2022-10-12T02:23:27.210Z,15.29876709
2022-10-12T02:24:27.822Z,15.30883789
2022-10-12T02:25:28.372Z,15.30883789
2022-10-12T02:26:28.852Z,15.32897949
2022-10-12T02:27:29.392Z,15.34912109
2022-10-12T02:28:30.167Z,15.3692627
2022-10-12T02:29:30.732Z,15.3994751
2022-10-12T02:30:31.917Z,15.3994751
2022-10-12T02:31:32.420Z,15.4296875
2022-10-12T02:32:32.934Z,15.4397583
2022-10-12T02:33:33.409Z,15.4598999
2022-10-12T02:34:34.080Z,15.4800415
2022-10-12T02:35:34.655Z,15.4901123
2022-10-12T02:36:35.223Z,15.52032471
2022-10-12T02:37:36.115Z,15.52032471
2022-10-12T02:38:36.259Z,15.53039551
2022-10-12T02:39:36.879Z,15.55053711
2022-10-12T02:40:38.436Z,15.56060791
2022-10-12T02:41:39.063Z,15.55053711
2022-10-12T02:43:08.335Z,15.55053711
2022-10-12T02:43:40.120Z,15.56060791
2022-10-12T02:44:40.602Z,15.53039551
2022-10-12T02:45:41.269Z,15.53039551
2022-10-12T02:46:41.874Z,15.53039551
2022-10-12T02:47:42.442Z,15.51025391
2022-10-12T02:48:42.925Z,15.4901123
2022-10-12T02:49:43.418Z,15.4598999
2022-10-12T02:50:45.018Z,15.4397583
2022-10-12T02:51:45.620Z,15.4397583
2022-10-12T02:52:46.174Z,15.4095459
2022-10-12T02:53:46.663Z,15.4095459
2022-10-12T02:54:47.604Z,15.4095459
2022-10-12T02:56:18.552Z,15.4296875
2022-10-12T02:57:19.172Z,15.4397583
2022-10-12T02:58:20.950Z,15.4598999
2022-10-12T02:59:21.489Z,15.4598999
2022-10-12T03:00:21.991Z,15.4598999
2022-10-12T03:01:23.206Z,15.4800415
2022-10-12T03:02:23.740Z,15.4800415
2022-10-12T03:03:24.329Z,15.4598999
2022-10-12T03:04:24.942Z,15.4397583
2022-10-12T03:05:25.407Z,15.4397583
2022-10-12T03:06:25.938Z,15.4397583
2022-10-12T03:07:26.516Z,15.4296875
2022-10-12T03:08:27.102Z,15.4598999
2022-10-12T03:09:27.693Z,15.4800415
2022-10-12T03:10:28.874Z,15.4598999
2022-10-12T03:11:30.392Z,15.4397583
2022-10-12T03:12:30.898Z,15.4598999
2022-10-12T03:13:31.442Z,15.4598999
2022-10-12T03:14:31.988Z,15.4598999
2022-10-12T03:15:32.584Z,15.4800415
2022-10-12T03:16:33.103Z,15.4800415
2022-10-12T03:17:33.645Z,15.4598999
2022-10-12T03:18:34.113Z,15.4800415
2022-10-12T03:19:34.726Z,15.4397583
2022-10-12T03:20:35.964Z,15.4598999
2022-10-12T03:21:36.503Z,15.4296875
2022-10-12T03:22:37.030Z,15.4397583
2022-10-12T03:23:37.511Z,15.4296875
2022-10-12T03:24:38.092Z,15.4095459
2022-10-12T03:25:38.680Z,15.4095459
2022-10-12T03:26:39.289Z,15.4296875
2022-10-12T03:27:40.291Z,15.4296875
2022-10-12T03:28:40.314Z,15.4296875
2022-10-12T03:29:40.726Z,15.4397583
2022-10-12T03:30:41.924Z,15.4598999
2022-10-12T03:31:42.546Z,15.4598999
2022-10-12T03:32:43.135Z,15.4397583
2022-10-12T03:33:43.583Z,15.4397583
2022-10-12T03:34:44.061Z,15.4296875
2022-10-12T03:35:44.676Z,15.4296875
2022-10-12T03:36:45.335Z,15.4397583
2022-10-12T03:37:45.991Z,15.4397583
2022-10-12T03:38:46.455Z,15.4296875
2022-10-12T03:40:17.447Z,15.4095459
2022-10-12T03:41:18.765Z,15.3994751
2022-10-12T03:42:19.945Z,15.3994751
2022-10-12T03:43:20.805Z,15.3793335
2022-10-12T03:44:21.363Z,15.3994751
2022-10-12T03:45:21.940Z,15.3994751
2022-10-12T03:46:22.414Z,15.4296875
2022-10-12T03:47:22.985Z,15.4296875
2022-10-12T03:48:23.622Z,15.4095459
2022-10-12T03:49:24.167Z,15.3994751
2022-10-12T03:50:24.648Z,15.4095459
2022-10-12T03:51:26.108Z,15.3994751
2022-10-12T03:52:26.716Z,15.3793335
2022-10-12T03:53:27.284Z,15.3994751
2022-10-12T03:54:27.964Z,15.4095459
2022-10-12T03:55:28.491Z,15.4095459
2022-10-12T03:56:28.973Z,15.4095459
2022-10-12T03:57:29.503Z,15.4095459
2022-10-12T03:58:30.176Z,15.3994751
2022-10-12T03:59:30.760Z,15.3994751
2022-10-12T04:00:31.400Z,15.3994751
2022-10-12T04:01:32.679Z,15.4296875
2022-10-12T04:02:33.150Z,15.4296875
2022-10-12T04:03:33.657Z,15.4095459
2022-10-12T04:04:34.348Z,15.3692627
2022-10-12T04:05:34.976Z,15.33905029
2022-10-12T04:06:35.647Z,15.33905029
2022-10-12T04:07:36.358Z,15.32897949
2022-10-12T04:08:36.616Z,15.33905029
2022-10-12T04:09:37.234Z,15.34912109
2022-10-12T04:10:37.878Z,15.32897949
2022-10-12T04:11:39.313Z,15.32897949
2022-10-12T04:12:39.892Z,15.29876709
2022-10-12T04:13:40.411Z,15.26855469
2022-10-12T04:14:40.885Z,15.26855469
2022-10-12T04:15:41.470Z,15.27862549
2022-10-12T04:16:42.962Z,15.29876709
2022-10-12T04:17:43.577Z,15.30883789
2022-10-12T04:18:44.128Z,15.32897949
2022-10-12T04:19:44.660Z,15.32897949
2022-10-12T04:20:45.123Z,15.30883789
2022-10-12T04:21:46.707Z,15.33905029
2022-10-12T04:23:17.605Z,15.33905029
2022-10-12T04:24:18.122Z,15.34912109
2022-10-12T04:25:18.608Z,15.34912109
2022-10-12T04:26:19.233Z,15.3692627
2022-10-12T04:27:19.920Z,15.3793335
2022-10-12T04:28:20.835Z,15.3692627
2022-10-12T04:29:21.306Z,15.34912109
2022-10-12T04:30:21.770Z,15.30883789
2022-10-12T04:31:22.899Z,15.32897949
2022-10-12T04:32:23.591Z,15.32897949
2022-10-12T04:33:24.217Z,15.30883789
2022-10-12T04:34:24.839Z,15.30883789
2022-10-12T04:35:25.403Z,15.32897949
2022-10-12T04:36:25.874Z,15.30883789
2022-10-12T04:37:26.373Z,15.30883789
2022-10-12T04:38:26.951Z,15.30883789
2022-10-12T04:39:28.281Z,15.29876709
2022-10-12T04:40:28.902Z,15.27862549
2022-10-12T04:41:30.400Z,15.26855469
2022-10-12T04:42:30.865Z,15.26855469
2022-10-12T04:43:31.445Z,15.29876709
2022-10-12T04:44:32.499Z,15.29876709
2022-10-12T04:45:32.676Z,15.26855469
2022-10-12T04:46:33.198Z,15.27862549
2022-10-12T04:47:33.738Z,15.26855469
2022-10-12T04:48:34.184Z,15.27862549
2022-10-12T04:49:34.868Z,15.29876709
2022-10-12T04:50:35.495Z,15.29876709
2022-10-12T04:51:36.974Z,15.29876709
2022-10-12T04:52:37.508Z,15.26855469
2022-10-12T04:53:38.026Z,15.24841309
2022-10-12T04:54:38.613Z,15.22827148
2022-10-12T04:55:39.183Z,15.19805908
2022-10-12T04:56:42.126Z,15.18798828
2022-10-12T04:57:40.953Z,15.18798828
2022-10-12T04:58:40.891Z,15.15777588
2022-10-12T04:59:41.400Z,15.14770508
2022-10-12T05:00:41.959Z,15.15777588
2022-10-12T05:01:43.377Z,15.15777588
2022-10-12T05:02:44.558Z,15.15777588
2022-10-12T05:03:45.905Z,15.19805908
2022-10-12T05:05:16.599Z,15.21820068
2022-10-12T05:06:17.251Z,15.21820068
2022-10-12T05:07:17.853Z,15.24841309
2022-10-12T05:08:18.446Z,15.26855469
2022-10-12T05:09:18.960Z,15.26855469
2022-10-12T05:10:19.416Z,15.24841309
2022-10-12T05:11:20.911Z,15.24841309
2022-10-12T05:12:21.542Z,15.24841309
2022-10-12T05:13:22.187Z,15.24841309
2022-10-12T05:14:22.726Z,15.26855469
2022-10-12T05:15:23.212Z,15.26855469
2022-10-12T05:16:23.819Z,15.26855469
2022-10-12T05:17:24.394Z,15.27862549
2022-10-12T05:18:25.060Z,15.29876709
2022-10-12T05:19:25.662Z,15.30883789
2022-10-12T05:20:26.258Z,15.32897949
2022-10-12T05:21:27.435Z,15.32897949
2022-10-12T05:22:27.884Z,15.33905029
2022-10-12T05:23:29.287Z,15.34912109
2022-10-12T05:24:29.913Z,15.33905029
2022-10-12T05:25:30.593Z,15.33905029
2022-10-12T05:26:31.087Z,15.32897949
2022-10-12T05:27:31.601Z,15.33905029
2022-10-12T05:28:36.998Z,15.32897949
2022-10-12T05:29:33.421Z,15.34912109
2022-10-12T05:30:34.048Z,15.34912109
2022-10-12T05:31:35.446Z,15.3692627
2022-10-12T05:32:36.046Z,15.3994751
2022-10-12T05:33:36.384Z,15.3994751
2022-10-12T05:34:37.046Z,15.4296875
2022-10-12T05:35:37.689Z,15.4397583
2022-10-12T05:36:38.267Z,15.4598999
2022-10-12T05:37:39.040Z,15.4800415
2022-10-12T05:38:39.254Z,15.4800415
2022-10-12T05:39:39.873Z,15.4800415
2022-10-12T05:40:41.507Z,15.4800415
2022-10-12T05:41:42.970Z,15.51025391
2022-10-12T05:42:43.519Z,15.51025391
2022-10-12T05:43:44.000Z,15.51025391
2022-10-12T05:44:44.482Z,15.52032471
2022-10-12T05:45:45.090Z,15.4901123
2022-10-12T05:47:16.105Z,15.4901123
2022-10-12T05:48:16.604Z,15.4901123
2022-10-12T05:49:17.067Z,15.4901123
2022-10-12T05:50:17.568Z,15.51025391
2022-10-12T05:51:18.193Z,15.51025391
2022-10-12T05:52:19.794Z,15.51025391
2022-10-12T05:53:20.622Z,15.4800415
2022-10-12T05:54:21.152Z,15.4901123
2022-10-12T05:55:21.658Z,15.4901123
2022-10-12T05:56:22.136Z,15.4901123
2022-10-12T05:57:22.784Z,15.4598999
2022-10-12T05:58:23.381Z,15.4397583
2022-10-12T05:59:23.970Z,15.4095459
2022-10-12T06:00:24.475Z,15.3692627
2022-10-12T06:01:24.995Z,15.33905029
2022-10-12T06:02:26.284Z,15.32897949
2022-10-12T06:03:28.663Z,15.29876709
2022-10-12T06:04:27.418Z,15.27862549
2022-10-12T06:05:28.004Z,15.26855469
2022-10-12T06:06:28.467Z,15.26855469
2022-10-12T06:07:28.973Z,15.26855469
2022-10-12T06:08:29.660Z,15.27862549
2022-10-12T06:09:30.263Z,15.29876709
2022-10-12T06:10:31.007Z,15.27862549
2022-10-12T06:11:34.029Z,15.29876709
2022-10-12T06:12:32.653Z,15.29876709
2022-10-12T06:13:33.193Z,15.27862549
2022-10-12T06:14:33.844Z,15.29876709
2022-10-12T06:15:34.523Z,15.30883789
2022-10-12T06:16:35.022Z,15.30883789
2022-10-12T06:17:35.465Z,15.30883789
2022-10-12T06:18:36.707Z,15.32897949
2022-10-12T06:19:37.366Z,15.32897949
2022-10-12T06:20:37.978Z,15.29876709
2022-10-12T06:21:39.515Z,15.27862549
2022-10-12T06:22:40.424Z,15.27862549
2022-10-12T06:23:40.450Z,15.27862549
2022-10-12T06:24:41.076Z,15.29876709
2022-10-12T06:25:41.634Z,15.27862549
2022-10-12T06:26:42.222Z,15.27862549
2022-10-12T06:27:42.786Z,15.29876709
2022-10-12T06:28:43.314Z,15.30883789
2022-10-12T06:29:43.741Z,15.30883789
2022-10-12T06:30:44.351Z,15.32897949
2022-10-12T06:32:16.616Z,15.33905029
2022-10-12T06:33:17.276Z,15.33905029
2022-10-12T06:34:17.764Z,15.34912109
2022-10-12T06:35:18.238Z,15.33905029
2022-10-12T06:36:18.838Z,15.33905029
2022-10-12T06:37:44.402Z,15.32897949
2022-10-12T06:38:20.072Z,15.34912109
2022-10-12T06:39:20.553Z,15.33905029
2022-10-12T06:40:21.041Z,15.33905029
2022-10-12T06:41:21.510Z,15.33905029
2022-10-12T06:42:22.847Z,15.33905029
2022-10-12T06:43:23.395Z,15.34912109
2022-10-12T06:44:24.014Z,15.3692627
2022-10-12T06:45:24.507Z,15.3692627
2022-10-12T06:46:25.019Z,15.3793335
2022-10-12T06:47:26.295Z,15.4296875
2022-10-12T06:48:26.857Z,15.4296875
2022-10-12T06:49:27.452Z,15.4397583
2022-10-12T06:50:27.997Z,15.4598999
2022-10-12T06:51:28.600Z,15.4800415
2022-10-12T06:52:29.701Z,15.4800415
2022-10-12T06:53:30.267Z,15.51025391
2022-10-12T06:54:30.828Z,15.52032471
2022-10-12T06:55:31.442Z,15.53039551
2022-10-12T06:56:31.947Z,15.55053711
2022-10-12T06:57:32.451Z,15.56060791
2022-10-12T06:58:32.930Z,15.58074951
2022-10-12T06:59:33.653Z,15.55053711
2022-10-12T07:00:34.322Z,15.52032471
2022-10-12T07:01:35.021Z,15.51025391
2022-10-12T07:02:36.517Z,15.4901123
2022-10-12T07:03:36.734Z,15.51025391
2022-10-12T07:04:37.397Z,15.52032471
2022-10-12T07:05:37.966Z,15.55053711
2022-10-12T07:06:38.579Z,15.58074951
2022-10-12T07:07:39.911Z,15.59082031
2022-10-12T07:08:40.378Z,15.62103271
2022-10-12T07:09:41.055Z,15.64117432
2022-10-12T07:10:41.656Z,15.67138672
2022-10-12T07:11:42.272Z,15.68145752
2022-10-12T07:12:43.735Z,15.68145752
2022-10-12T07:14:14.841Z,15.67138672
2022-10-12T07:15:15.368Z,15.68145752
2022-10-12T07:16:16.024Z,15.67138672
2022-10-12T07:17:16.745Z,15.67138672
2022-10-12T07:18:17.277Z,15.68145752
2022-10-12T07:19:17.768Z,15.66131592
2022-10-12T07:20:18.265Z,15.64117432
2022-10-12T07:21:18.908Z,15.64117432
2022-10-12T07:22:20.502Z,15.62103271
2022-10-12T07:23:21.200Z,15.64117432
2022-10-12T07:24:21.719Z,15.64117432
2022-10-12T07:25:22.218Z,15.66131592
2022-10-12T07:26:22.761Z,15.66131592
2022-10-12T07:27:23.422Z,15.67138672
2022-10-12T07:28:24.142Z,15.68145752
2022-10-12T07:29:24.580Z,15.68145752
2022-10-12T07:30:25.078Z,15.68145752
2022-10-12T07:31:25.577Z,15.62103271
2022-10-12T07:32:27.043Z,15.64117432
2022-10-12T07:33:27.637Z,15.66131592
2022-10-12T07:34:28.302Z,15.67138672
2022-10-12T07:35:28.857Z,15.68145752
2022-10-12T07:36:47.358Z,15.73181152
2022-10-12T07:37:29.948Z,15.74188232
2022-10-12T07:38:30.607Z,15.77209473
2022-10-12T07:39:31.769Z,15.80230713
2022-10-12T07:40:32.262Z,15.80230713
2022-10-12T07:41:32.777Z,15.84259033
2022-10-12T07:42:33.952Z,15.85266113
2022-10-12T07:43:34.539Z,15.86273193
2022-10-12T07:44:35.153Z,15.88287354
2022-10-12T07:45:35.850Z,15.92315674
2022-10-12T07:46:36.322Z,15.91308594
2022-10-12T07:47:37.968Z,15.91308594
2022-10-12T07:48:38.177Z,15.92315674
2022-10-12T07:49:38.860Z,15.91308594
2022-10-12T07:50:39.391Z,15.91308594
2022-10-12T07:51:40.421Z,15.91308594
2022-10-12T07:52:41.454Z,15.92315674
2022-10-12T07:53:41.978Z,15.93322754
2022-10-12T07:54:42.443Z,15.93322754
2022-10-12T07:55:42.932Z,15.92315674
2022-10-12T07:56:44.437Z,15.95336914
2022-10-12T07:58:15.147Z,15.98358154
2022-10-12T07:59:15.615Z,15.98358154
2022-10-12T08:00:16.133Z,16.01379395
2022-10-12T08:01:16.688Z,16.01379395
2022-10-12T08:02:17.948Z,16.01379395
2022-10-12T08:03:18.400Z,16.04400635
2022-10-12T08:04:19.724Z,15.99365234
2022-10-12T08:05:20.197Z,15.99365234
2022-10-12T08:06:20.836Z,15.98358154
2022-10-12T08:07:21.291Z,15.96343994
2022-10-12T08:08:21.763Z,15.95336914
2022-10-12T08:09:22.209Z,15.95336914
2022-10-12T08:10:22.630Z,15.95336914
2022-10-12T08:11:23.157Z,15.96343994
2022-10-12T08:12:24.415Z,15.96343994
2022-10-12T08:13:24.912Z,15.98358154
2022-10-12T08:14:25.397Z,15.99365234
2022-10-12T08:15:25.856Z,16.01379395
2022-10-12T08:16:26.349Z,16.04400635
2022-10-12T08:17:26.828Z,16.06414795
2022-10-12T08:18:27.281Z,16.10443115
2022-10-12T08:19:30.620Z,16.08428955
2022-10-12T08:20:28.225Z,16.11450195
2022-10-12T08:21:28.683Z,16.11450195
2022-10-12T08:22:29.953Z,16.13464355
2022-10-12T08:23:30.409Z,16.14471436
2022-10-12T08:24:31.646Z,16.16485596
2022-10-12T08:25:32.108Z,16.17492676
2022-10-12T08:26:32.606Z,16.18499756
2022-10-12T08:27:33.030Z,16.18499756
2022-10-12T08:28:33.600Z,16.18499756
2022-10-12T08:29:34.042Z,16.21520996
2022-10-12T08:30:34.527Z,16.24542236
2022-10-12T08:31:35.012Z,16.25549316
2022-10-12T08:32:36.418Z,16.26556396
2022-10-12T08:33:36.948Z,16.28570557
2022-10-12T08:34:37.524Z,16.29577637
2022-10-12T08:35:38.045Z,16.31591797
2022-10-12T08:36:38.530Z,16.33605957
2022-10-12T08:37:39.283Z,16.36627197
2022-10-12T08:38:39.435Z,16.40655518
2022-10-12T08:39:39.924Z,16.43676758
2022-10-12T08:40:40.509Z,16.44683838
2022-10-12T08:41:41.203Z,16.46697998
2022-10-12T08:42:42.199Z,16.46697998
2022-10-12T08:44:13.913Z,16.47705078
2022-10-12T08:45:14.632Z,16.47705078
2022-10-12T08:46:15.271Z,16.50726318
2022-10-12T08:47:16.453Z,16.50726318
2022-10-12T08:48:16.935Z,16.50726318
2022-10-12T08:49:17.416Z,16.50726318
2022-10-12T08:50:18.211Z,16.50726318
2022-10-12T08:51:18.746Z,16.51733398
2022-10-12T08:52:20.268Z,16.53747559
2022-10-12T08:53:20.924Z,16.51733398
2022-10-12T08:54:21.496Z,16.51733398
2022-10-12T08:55:22.109Z,16.53747559
2022-10-12T08:56:22.749Z,16.51733398
2022-10-12T08:57:24.268Z,16.47705078
2022-10-12T08:58:24.766Z,16.47705078
2022-10-12T08:59:25.311Z,16.46697998
2022-10-12T09:00:25.869Z,16.46697998
2022-10-12T09:01:26.501Z,16.46697998
2022-10-12T09:02:27.013Z,16.46697998
2022-10-12T09:03:28.205Z,16.47705078
2022-10-12T09:04:28.700Z,16.47705078
2022-10-12T09:05:29.273Z,16.49719238
2022-10-12T09:06:29.778Z,16.49719238
2022-10-12T09:07:30.248Z,16.50726318
2022-10-12T09:08:30.705Z,16.51733398
2022-10-12T09:09:31.252Z,16.53747559
2022-10-12T09:10:31.739Z,16.54754639
2022-10-12T09:11:32.335Z,16.53747559
2022-10-12T09:12:32.994Z,16.53747559
2022-10-12T09:13:34.372Z,16.56768799
2022-10-12T09:14:34.833Z,16.56768799
2022-10-12T09:15:35.327Z,16.54754639
2022-10-12T09:16:35.845Z,16.54754639
2022-10-12T09:17:36.495Z,16.54754639
2022-10-12T09:18:40.595Z,16.54754639
2022-10-12T09:19:37.664Z,16.53747559
2022-10-12T09:20:38.144Z,16.54754639
2022-10-12T09:21:38.613Z,16.53747559
2022-10-12T09:22:39.936Z,16.51733398
2022-10-12T09:23:40.810Z,16.50726318
2022-10-12T09:24:41.366Z,16.49719238
2022-10-12T09:25:41.963Z,16.46697998
2022-10-12T09:27:13.115Z,16.40655518
2022-10-12T09:28:13.673Z,16.35620117
2022-10-12T09:29:14.203Z,16.33605957
2022-10-12T09:30:14.853Z,16.35620117
2022-10-12T09:31:15.275Z,16.35620117
2022-10-12T09:32:15.783Z,16.36627197
2022-10-12T09:33:16.978Z,16.35620117
2022-10-12T09:34:19.407Z,16.32598877
2022-10-12T09:35:18.403Z,16.33605957
2022-10-12T09:36:18.892Z,16.33605957
2022-10-12T09:37:19.925Z,16.39648438
2022-10-12T09:38:20.692Z,16.39648438
2022-10-12T09:39:23.503Z,16.41662598
2022-10-12T09:40:21.677Z,16.44683838
2022-10-12T09:41:22.140Z,16.47705078
2022-10-12T09:42:22.615Z,16.47705078
2022-10-12T09:43:23.972Z,16.47705078
2022-10-12T09:44:24.499Z,16.50726318
2022-10-12T09:45:25.082Z,16.50726318
2022-10-12T09:46:25.741Z,16.53747559
2022-10-12T09:47:26.446Z,16.58782959
2022-10-12T09:48:26.920Z,16.61804199
2022-10-12T09:49:27.387Z,16.6583252
2022-10-12T09:50:28.064Z,16.668396
2022-10-12T09:51:28.641Z,16.71875
2022-10-12T09:52:29.794Z,16.7288208
2022-10-12T09:53:31.044Z,16.769104
2022-10-12T09:54:31.415Z,16.7791748
2022-10-12T09:55:31.913Z,16.80938721
2022-10-12T09:56:32.643Z,16.80938721
2022-10-12T09:57:33.254Z,16.81945801
2022-10-12T09:58:33.855Z,16.84967041
2022-10-12T09:59:34.319Z,16.84967041
2022-10-12T10:00:34.808Z,16.87988281
2022-10-12T10:01:35.503Z,16.87988281
2022-10-12T10:02:36.035Z,16.87988281
2022-10-12T10:03:37.325Z,16.92016602
2022-10-12T10:04:37.790Z,16.91009521
2022-10-12T10:05:38.343Z,16.91009521
2022-10-12T10:06:38.840Z,16.95037842
2022-10-12T10:07:39.482Z,16.92016602
2022-10-12T10:08:40.075Z,16.92016602
2022-10-12T10:09:40.664Z,16.92016602
2022-10-12T10:10:41.151Z,16.95037842
2022-10-12T10:11:42.103Z,16.96044922
2022-10-12T10:13:13.456Z,16.96044922
2022-10-12T10:14:14.057Z,16.98059082
2022-10-12T10:15:14.723Z,16.98059082
2022-10-12T10:16:15.184Z,16.98059082
2022-10-12T10:17:16.432Z,16.98059082
2022-10-12T10:18:17.008Z,16.98059082
2022-10-12T10:19:17.681Z,16.99066162
2022-10-12T10:20:18.521Z,16.99066162
2022-10-12T10:21:18.800Z,16.99066162
2022-10-12T10:22:19.269Z,16.98059082
2022-10-12T10:23:20.430Z,16.99066162
2022-10-12T10:24:20.899Z,17.00073242
2022-10-12T10:25:21.375Z,16.96044922
2022-10-12T10:26:22.681Z,16.95037842
2022-10-12T10:27:23.690Z,16.95037842
2022-10-12T10:28:24.267Z,16.90002441
2022-10-12T10:29:24.665Z,16.84967041
2022-10-12T10:30:30.176Z,16.80938721
2022-10-12T10:31:25.678Z,16.81945801
2022-10-12T10:32:26.121Z,16.83959961
2022-10-12T10:33:27.513Z,16.81945801
2022-10-12T10:34:28.022Z,16.81945801
2022-10-12T10:35:28.533Z,16.81945801
2022-10-12T10:36:29.060Z,16.80938721
2022-10-12T10:37:30.196Z,16.79931641
2022-10-12T10:38:30.666Z,16.79931641
2022-10-12T10:39:31.129Z,16.80938721
2022-10-12T10:40:31.641Z,16.80938721
2022-10-12T10:41:32.126Z,16.79931641
2022-10-12T10:42:32.569Z,16.81945801
2022-10-12T10:43:33.948Z,16.81945801
2022-10-12T10:44:34.509Z,16.84967041
2022-10-12T10:45:34.986Z,16.86981201
2022-10-12T10:46:35.447Z,16.90002441
2022-10-12T10:47:36.009Z,16.90002441
2022-10-12T10:48:36.474Z,16.87988281
2022-10-12T10:49:36.988Z,16.87988281
2022-10-12T10:50:38.173Z,16.90002441
2022-10-12T10:51:38.652Z,16.91009521
2022-10-12T10:52:39.142Z,16.92016602
2022-10-12T10:53:40.488Z,16.92016602
2022-10-12T10:54:40.928Z,16.95037842
2022-10-12T10:56:11.974Z,16.96044922
2022-10-12T10:57:12.586Z,16.98059082
2022-10-12T10:58:13.377Z,16.99066162
2022-10-12T10:59:13.828Z,17.00073242
2022-10-12T11:00:37.217Z,17.03094482
2022-10-12T11:01:14.804Z,17.05108643
2022-10-12T11:02:15.279Z,17.07122803
2022-10-12T11:03:15.781Z,17.09136963
2022-10-12T11:04:17.169Z,17.10144043
2022-10-12T11:05:18.094Z,17.12158203